Carnival Triumph — C6FN5 — position and weather

sailwx.info

Track history (hours):
 
Tides and Currents Weather Stations Pressure Air Temp Water Temp Dewpoint Dewpoint Depression Visibility Wind Speed Wind Dir Waves Ship Positions

Carnival Triumph

Operator: Carnival Cruise Lines

Last reported at 2015-Sep-01 22:33 UTC. Time now 2015-Sep-03 21:30 UTC.
Position N 20°29' W 086°59'.

Type: Ship. MMSI: 308045000.

Date/timePositionNaut miles runAvg speedWind from/ knotsBaromVisibWave heightAir tempDewpointWater temp
2015-Sep-01 22:33N 20°29' W 086°59'1 0.8
2015-Sep-01 21:33N 20°29' W 086°59'0 0.0
2015-Sep-01 20:33N 20°29' W 086°59'0 0.0
2015-Sep-01 19:33N 20°29' W 086°59'0 0.0
2015-Sep-01 18:33N 20°29' W 086°59'0 0.0
2015-Sep-01 17:33N 20°29' W 086°59'0 0.0
2015-Sep-01 16:33N 20°29' W 086°59'0 0.0
2015-Sep-01 15:30N 20°29' W 086°59'0 0.0
2015-Sep-01 13:30N 20°29' W 086°59'1 1.5
2015-Sep-01 12:33N 20°30' W 086°59'  
2015-Aug-29 22:04N 29°21' W 094°46'3 0.4
2015-Aug-29 14:25N 29°19' W 094°48'0 0.0
2015-Aug-29 13:28N 29°19' W 094°48'3 2.8
2015-Aug-29 12:33N 29°20' W 094°46'  
2015-Aug-26 22:30N 20°37' W 086°56'8 8.5
2015-Aug-26 21:31N 20°29' W 086°59'0 0.0
2015-Aug-26 20:31N 20°29' W 086°59'0 0.0
2015-Aug-26 19:31N 20°29' W 086°59'0 0.0
2015-Aug-26 18:31N 20°29' W 086°59'0 0.0
2015-Aug-26 17:34N 20°29' W 086°59'0 0.0
2015-Aug-26 16:33N 20°29' W 086°59'0 0.0
2015-Aug-26 15:33N 20°29' W 086°59'0 0.0
2015-Aug-26 14:32N 20°29' W 086°59'0 0.0
2015-Aug-26 13:32N 20°29' W 086°59'0 0.1
2015-Aug-26 12:34N 20°29' W 086°59'  
Track history (hours):
 
Tides and Currents Weather Stations Pressure Air Temp Water Temp Dewpoint Dewpoint Depression Visibility Wind Speed Wind Dir Waves Ship Positions

Carnival Triumph

Operator: Carnival Cruise Lines

Last reported at 2015-Sep-01 22:33 UTC. Time now 2015-Sep-03 21:30 UTC.
Position N 20°29' W 086°59'.

Type: Ship. MMSI: 308045000.

Date/timePositionNaut miles runAvg speedWind from/ knotsBaromVisibWave heightAir tempDewpointWater temp
2015-Sep-01 22:33N 20°29' W 086°59'1 0.8
2015-Sep-01 21:33N 20°29' W 086°59'0 0.0
2015-Sep-01 20:33N 20°29' W 086°59'0 0.0
2015-Sep-01 19:33N 20°29' W 086°59'0 0.0
2015-Sep-01 18:33N 20°29' W 086°59'0 0.0
2015-Sep-01 17:33N 20°29' W 086°59'0 0.0
2015-Sep-01 16:33N 20°29' W 086°59'0 0.0
2015-Sep-01 15:30N 20°29' W 086°59'0 0.0
2015-Sep-01 13:30N 20°29' W 086°59'1 1.5
2015-Sep-01 12:33N 20°30' W 086°59'  
2015-Aug-29 22:04N 29°21' W 094°46'3 0.4
2015-Aug-29 14:25N 29°19' W 094°48'0 0.0
2015-Aug-29 13:28N 29°19' W 094°48'3 2.8
2015-Aug-29 12:33N 29°20' W 094°46'  
2015-Aug-26 22:30N 20°37' W 086°56'8 8.5
2015-Aug-26 21:31N 20°29' W 086°59'0 0.0
2015-Aug-26 20:31N 20°29' W 086°59'0 0.0
2015-Aug-26 19:31N 20°29' W 086°59'0 0.0
2015-Aug-26 18:31N 20°29' W 086°59'0 0.0
2015-Aug-26 17:34N 20°29' W 086°59'0 0.0
2015-Aug-26 16:33N 20°29' W 086°59'0 0.0
2015-Aug-26 15:33N 20°29' W 086°59'0 0.0
2015-Aug-26 14:32N 20°29' W 086°59'0 0.0
2015-Aug-26 13:32N 20°29' W 086°59'0 0.1
2015-Aug-26 12:34N 20°29' W 086°59'  

Dump ship's entire track history